sensor_id;sensor_type;location;lat;lon;timestamp;pressure;altitude;pressure_sealevel;temperature
15144;BMP180;7672;50.834;6.286;2023-04-24T00:01:03;98309.53;;;14.06
15144;BMP180;7672;50.834;6.286;2023-04-24T00:03:53;98301.09;;;14.06
15144;BMP180;7672;50.834;6.286;2023-04-24T00:07:16;98303.56;;;14.07
15144;BMP180;7672;50.834;6.286;2023-04-24T00:10:45;98303.56;;;14.07
15144;BMP180;7672;50.834;6.286;2023-04-24T00:13:33;98299.22;;;14.12
15144;BMP180;7672;50.834;6.286;2023-04-24T00:16:31;98308.47;;;14.15
15144;BMP180;7672;50.834;6.286;2023-04-24T00:20:29;98303.25;;;14.18
15144;BMP180;7672;50.834;6.286;2023-04-24T00:23:48;98313.53;;;14.15
15144;BMP180;7672;50.834;6.286;2023-04-24T00:27:15;98326.25;;;14.15
15144;BMP180;7672;50.834;6.286;2023-04-24T00:30:18;98315.25;;;14.14
15144;BMP180;7672;50.834;6.286;2023-04-24T00:33:13;98327.91;;;14.16
15144;BMP180;7672;50.834;6.286;2023-04-24T00:35:40;98324.56;;;14.14
15144;BMP180;7672;50.834;6.286;2023-04-24T00:38:09;98331.25;;;14.16
15144;BMP180;7672;50.834;6.286;2023-04-24T00:40:36;98329.72;;;14.12
15144;BMP180;7672;50.834;6.286;2023-04-24T00:43:03;98335.72;;;14.10
15144;BMP180;7672;50.834;6.286;2023-04-24T00:45:30;98330.69;;;14.08
15144;BMP180;7672;50.834;6.286;2023-04-24T00:47:58;98331.56;;;14.06
15144;BMP180;7672;50.834;6.286;2023-04-24T00:50:26;98330.06;;;14.00
15144;BMP180;7672;50.834;6.286;2023-04-24T00:52:53;98329.44;;;13.92
15144;BMP180;7672;50.834;6.286;2023-04-24T00:55:21;98333.13;;;13.84
15144;BMP180;7672;50.834;6.286;2023-04-24T00:57:48;98341.06;;;13.73
15144;BMP180;7672;50.834;6.286;2023-04-24T01:00:16;98328.59;;;13.64
15144;BMP180;7672;50.834;6.286;2023-04-24T01:02:44;98333.09;;;13.57
15144;BMP180;7672;50.834;6.286;2023-04-24T01:05:14;98340.06;;;13.50
15144;BMP180;7672;50.834;6.286;2023-04-24T01:07:45;98340.22;;;13.44
15144;BMP180;7672;50.834;6.286;2023-04-24T01:10:14;98332.81;;;13.38
15144;BMP180;7672;50.834;6.286;2023-04-24T01:12:41;98326.22;;;13.31
15144;BMP180;7672;50.834;6.286;2023-04-24T01:15:11;98322.94;;;13.28
15144;BMP180;7672;50.834;6.286;2023-04-24T01:17:38;98322.22;;;13.24
15144;BMP180;7672;50.834;6.286;2023-04-24T01:20:06;98323.06;;;13.23
15144;BMP180;7672;50.834;6.286;2023-04-24T01:22:34;98331.50;;;13.24
15144;BMP180;7672;50.834;6.286;2023-04-24T01:25:01;98326.44;;;13.24
15144;BMP180;7672;50.834;6.286;2023-04-24T01:27:29;98320.50;;;13.25
15144;BMP180;7672;50.834;6.286;2023-04-24T01:29:56;98320.41;;;13.28
15144;BMP180;7672;50.834;6.286;2023-04-24T01:32:25;98321.31;;;13.25
15144;BMP180;7672;50.834;6.286;2023-04-24T01:34:54;98329.66;;;13.29
15144;BMP180;7672;50.834;6.286;2023-04-24T01:37:21;98328.75;;;13.31
15144;BMP180;7672;50.834;6.286;2023-04-24T01:39:48;98332.16;;;13.30
15144;BMP180;7672;50.834;6.286;2023-04-24T01:42:16;98337.28;;;13.29
15144;BMP180;7672;50.834;6.286;2023-04-24T01:44:43;98326.28;;;13.30
15144;BMP180;7672;50.834;6.286;2023-04-24T01:47:11;98327.09;;;13.30
15144;BMP180;7672;50.834;6.286;2023-04-24T01:49:39;98323.72;;;13.30
15144;BMP180;7672;50.834;6.286;2023-04-24T01:52:06;98327.13;;;13.29
15144;BMP180;7672;50.834;6.286;2023-04-24T01:54:33;98321.19;;;13.30
15144;BMP180;7672;50.834;6.286;2023-04-24T01:57:00;98327.13;;;13.29
15144;BMP180;7672;50.834;6.286;2023-04-24T01:59:30;98322.78;;;13.34
15144;BMP180;7672;50.834;6.286;2023-04-24T02:01:59;98317.75;;;13.32
15144;BMP180;7672;50.834;6.286;2023-04-24T02:04:26;98320.19;;;13.35
15144;BMP180;7672;50.834;6.286;2023-04-24T02:06:54;98310.94;;;13.34
15144;BMP180;7672;50.834;6.286;2023-04-24T02:09:21;98326.97;;;13.35
15144;BMP180;7672;50.834;6.286;2023-04-24T02:11:47;98322.72;;;13.35
15144;BMP180;7672;50.834;6.286;2023-04-24T02:14:14;98316.88;;;13.33
15144;BMP180;7672;50.834;6.286;2023-04-24T02:16:41;98320.19;;;13.35
15144;BMP180;7672;50.834;6.286;2023-04-24T02:19:09;98322.72;;;13.35
15144;BMP180;7672;50.834;6.286;2023-04-24T02:21:36;98325.31;;;13.34
15144;BMP180;7672;50.834;6.286;2023-04-24T02:24:03;98319.38;;;13.35
15144;BMP180;7672;50.834;6.286;2023-04-24T02:26:30;98321.94;;;13.33
15144;BMP180;7672;50.834;6.286;2023-04-24T02:28:58;98319.47;;;13.30
15144;BMP180;7672;50.834;6.286;2023-04-24T02:31:25;98316.06;;;13.31
15144;BMP180;7672;50.834;6.286;2023-04-24T02:33:52;98317.78;;;13.31
15144;BMP180;7672;50.834;6.286;2023-04-24T02:36:19;98309.31;;;13.32
15144;BMP180;7672;50.834;6.286;2023-04-24T02:38:46;98305.94;;;13.31
15144;BMP180;7672;50.834;6.286;2023-04-24T02:41:12;98312.75;;;13.29
15144;BMP180;7672;50.834;6.286;2023-04-24T02:43:39;98305.28;;;13.25
15144;BMP180;7672;50.834;6.286;2023-04-24T02:46:06;98310.34;;;13.25
15144;BMP180;7672;50.834;6.286;2023-04-24T02:48:33;98308.72;;;13.22
15144;BMP180;7672;50.834;6.286;2023-04-24T02:51:00;98315.50;;;13.22
15144;BMP180;7672;50.834;6.286;2023-04-24T02:53:27;98304.50;;;13.23
15144;BMP180;7672;50.834;6.286;2023-04-24T02:55:54;98317.94;;;13.25
15144;BMP180;7672;50.834;6.286;2023-04-24T02:58:21;98316.28;;;13.24
15144;BMP180;7672;50.834;6.286;2023-04-24T03:00:54;98317.13;;;13.24
15144;BMP180;7672;50.834;6.286;2023-04-24T03:03:22;98319.00;;;13.18
15144;BMP180;7672;50.834;6.286;2023-04-24T03:05:50;98321.56;;;13.16
15144;BMP180;7672;50.834;6.286;2023-04-24T03:08:17;98318.31;;;13.11
15144;BMP180;7672;50.834;6.286;2023-04-24T03:10:44;98330.13;;;13.12
15144;BMP180;7672;50.834;6.286;2023-04-24T03:13:15;98332.69;;;13.12
15144;BMP180;7672;50.834;6.286;2023-04-24T03:15:42;98336.94;;;13.12
15144;BMP180;7672;50.834;6.286;2023-04-24T03:18:09;98337.69;;;13.14
15144;BMP180;7672;50.834;6.286;2023-04-24T03:20:38;98338.56;;;13.14
15144;BMP180;7672;50.834;6.286;2023-04-24T03:23:05;98332.63;;;13.15
15144;BMP180;7672;50.834;6.286;2023-04-24T03:25:32;98328.44;;;13.13
15144;BMP180;7672;50.834;6.286;2023-04-24T03:27:59;98340.22;;;13.15
15144;BMP180;7672;50.834;6.286;2023-04-24T03:30:26;98337.69;;;13.14
15144;BMP180;7672;50.834;6.286;2023-04-24T03:32:52;98341.09;;;13.14
15144;BMP180;7672;50.834;6.286;2023-04-24T03:35:19;98341.94;;;13.13
15144;BMP180;7672;50.834;6.286;2023-04-24T03:37:49;98341.13;;;13.13
15144;BMP180;7672;50.834;6.286;2023-04-24T03:40:15;98340.28;;;13.12
15144;BMP180;7672;50.834;6.286;2023-04-24T03:42:42;98338.66;;;13.10
15144;BMP180;7672;50.834;6.286;2023-04-24T03:45:10;98342.06;;;13.10
15144;BMP180;7672;50.834;6.286;2023-04-24T03:47:36;98336.28;;;13.05
15144;BMP180;7672;50.834;6.286;2023-04-24T03:50:04;98328.72;;;13.02
15144;BMP180;7672;50.834;6.286;2023-04-24T03:52:31;98340.59;;;13.02
15144;BMP180;7672;50.834;6.286;2023-04-24T03:54:58;98324.56;;;13.00
15144;BMP180;7672;50.834;6.286;2023-04-24T03:57:25;98336.50;;;12.97
15144;BMP180;7672;50.834;6.286;2023-04-24T03:59:52;98330.78;;;12.89
15144;BMP180;7672;50.834;6.286;2023-04-24T04:02:20;98333.47;;;12.83
15144;BMP180;7672;50.834;6.286;2023-04-24T04:04:47;98332.00;;;12.74
15144;BMP180;7672;50.834;6.286;2023-04-24T04:07:14;98336.31;;;12.71
15144;BMP180;7672;50.834;6.286;2023-04-24T04:09:44;98342.38;;;12.65
15144;BMP180;7672;50.834;6.286;2023-04-24T04:12:11;98337.44;;;12.59
15144;BMP180;7672;50.834;6.286;2023-04-24T04:14:39;98345.06;;;12.59
15144;BMP180;7672;50.834;6.286;2023-04-24T04:17:06;98346.88;;;12.54
15144;BMP180;7672;50.834;6.286;2023-04-24T04:19:32;98352.75;;;12.56
15144;BMP180;7672;50.834;6.286;2023-04-24T04:21:59;98346.09;;;12.52
15144;BMP180;7672;50.834;6.286;2023-04-24T04:24:26;98353.03;;;12.44
15144;BMP180;7672;50.834;6.286;2023-04-24T04:26:56;98346.38;;;12.42
15144;BMP180;7672;50.834;6.286;2023-04-24T04:29:24;98360.75;;;12.40
15144;BMP180;7672;50.834;6.286;2023-04-24T04:31:52;98354.88;;;12.38
15144;BMP180;7672;50.834;6.286;2023-04-24T04:34:19;98362.34;;;12.44
15144;BMP180;7672;50.834;6.286;2023-04-24T04:36:46;98360.56;;;12.47
15144;BMP180;7672;50.834;6.286;2023-04-24T04:39:13;98354.59;;;12.50
15144;BMP180;7672;50.834;6.286;2023-04-24T04:41:44;98361.31;;;12.52
15144;BMP180;7672;50.834;6.286;2023-04-24T04:44:13;98357.91;;;12.53
15144;BMP180;7672;50.834;6.286;2023-04-24T04:46:40;98372.19;;;12.56
15144;BMP180;7672;50.834;6.286;2023-04-24T04:49:08;98367.94;;;12.56
15144;BMP180;7672;50.834;6.286;2023-04-24T04:51:35;98374.75;;;12.56
15144;BMP180;7672;50.834;6.286;2023-04-24T04:54:06;98376.38;;;12.57
15144;BMP180;7672;50.834;6.286;2023-04-24T04:56:34;98372.13;;;12.59
15144;BMP180;7672;50.834;6.286;2023-04-24T04:59:01;98380.59;;;12.58
15144;BMP180;7672;50.834;6.286;2023-04-24T05:01:33;98388.19;;;12.58
15144;BMP180;7672;50.834;6.286;2023-04-24T05:04:03;98387.38;;;12.57
15144;BMP180;7672;50.834;6.286;2023-04-24T05:06:30;98386.56;;;12.55
15144;BMP180;7672;50.834;6.286;2023-04-24T05:09:00;98391.63;;;12.55
15144;BMP180;7672;50.834;6.286;2023-04-24T05:11:26;98398.38;;;12.56
15144;BMP180;7672;50.834;6.286;2023-04-24T05:13:53;98400.84;;;12.58
15144;BMP180;7672;50.834;6.286;2023-04-24T05:16:21;98398.38;;;12.56
15144;BMP180;7672;50.834;6.286;2023-04-24T05:18:56;98391.63;;;12.55
15144;BMP180;7672;50.834;6.286;2023-04-24T05:21:22;98384.94;;;12.53
15144;BMP180;7672;50.834;6.286;2023-04-24T05:23:52;98400.13;;;12.53
15144;BMP180;7672;50.834;6.286;2023-04-24T05:26:22;98399.28;;;12.54
15144;BMP180;7672;50.834;6.286;2023-04-24T05:28:49;98400.84;;;12.58
15144;BMP180;7672;50.834;6.286;2023-04-24T05:31:18;98405.09;;;12.57
15144;BMP180;7672;50.834;6.286;2023-04-24T05:33:57;98404.16;;;12.61
15144;BMP180;7672;50.834;6.286;2023-04-24T05:36:42;98407.38;;;12.68
15144;BMP180;7672;50.834;6.286;2023-04-24T05:39:26;98409.75;;;12.74
15144;BMP180;7672;50.834;6.286;2023-04-24T05:42:03;98406.28;;;12.78
15144;BMP180;7672;50.834;6.286;2023-04-24T05:44:31;98407.88;;;12.82
15144;BMP180;7672;50.834;6.286;2023-04-24T05:46:59;98409.50;;;12.84
15144;BMP180;7672;50.834;6.286;2023-04-24T05:49:26;98409.53;;;12.83
15144;BMP180;7672;50.834;6.286;2023-04-24T05:51:53;98421.44;;;12.79
15144;BMP180;7672;50.834;6.286;2023-04-24T05:54:20;98417.38;;;12.74
15144;BMP180;7672;50.834;6.286;2023-04-24T05:56:48;98430.94;;;12.71
15144;BMP180;7672;50.834;6.286;2023-04-24T05:59:15;98429.38;;;12.66
15144;BMP180;7672;50.834;6.286;2023-04-24T06:01:43;98437.91;;;12.62
15144;BMP180;7672;50.834;6.286;2023-04-24T06:04:10;98445.69;;;12.56
15144;BMP180;7672;50.834;6.286;2023-04-24T06:06:38;98443.28;;;12.50
15144;BMP180;7672;50.834;6.286;2023-04-24T06:09:05;98448.41;;;12.47
15144;BMP180;7672;50.834;6.286;2023-04-24T06:11:32;98442.59;;;12.43
15144;BMP180;7672;50.834;6.286;2023-04-24T06:13:59;98453.63;;;12.41
15144;BMP180;7672;50.834;6.286;2023-04-24T06:16:27;98455.34;;;12.39
15144;BMP180;7672;50.834;6.286;2023-04-24T06:18:54;98451.16;;;12.39
15144;BMP180;7672;50.834;6.286;2023-04-24T06:21:22;98457.03;;;12.40
15144;BMP180;7672;50.834;6.286;2023-04-24T06:23:49;98467.16;;;12.40
15144;BMP180;7672;50.834;6.286;2023-04-24T06:26:16;98461.28;;;12.39
15144;BMP180;7672;50.834;6.286;2023-04-24T06:28:43;98471.41;;;12.39
15144;BMP180;7672;50.834;6.286;2023-04-24T06:31:11;98473.94;;;12.39
15144;BMP180;7672;50.834;6.286;2023-04-24T06:33:38;98468.06;;;12.37
15144;BMP180;7672;50.834;6.286;2023-04-24T06:36:05;98478.28;;;12.33
15144;BMP180;7672;50.834;6.286;2023-04-24T06:38:33;98479.13;;;12.33
15144;BMP180;7672;50.834;6.286;2023-04-24T06:41:01;98479.19;;;12.32
15144;BMP180;7672;50.834;6.286;2023-04-24T06:43:27;98479.19;;;12.31
15144;BMP180;7672;50.834;6.286;2023-04-24T06:45:54;98489.31;;;12.31
15144;BMP180;7672;50.834;6.286;2023-04-24T06:48:24;98485.09;;;12.31
15144;BMP180;7672;50.834;6.286;2023-04-24T06:50:52;98492.63;;;12.34
15144;BMP180;7672;50.834;6.286;2023-04-24T06:53:19;98507.88;;;12.32
15144;BMP180;7672;50.834;6.286;2023-04-24T06:55:46;98516.25;;;12.36
15144;BMP180;7672;50.834;6.286;2023-04-24T06:58:13;98521.31;;;12.36
15144;BMP180;7672;50.834;6.286;2023-04-24T07:00:41;98518.81;;;12.33
15144;BMP180;7672;50.834;6.286;2023-04-24T07:03:08;98518.84;;;12.32
15144;BMP180;7672;50.834;6.286;2023-04-24T07:05:35;98519.84;;;12.26
15144;BMP180;7672;50.834;6.286;2023-04-24T07:08:03;98536.81;;;12.21
15144;BMP180;7672;50.834;6.286;2023-04-24T07:10:30;98534.44;;;12.14
15144;BMP180;7672;50.834;6.286;2023-04-24T07:12:57;98537.09;;;12.09
15144;BMP180;7672;50.834;6.286;2023-04-24T07:15:24;98539.69;;;12.05
15144;BMP180;7672;50.834;6.286;2023-04-24T07:17:50;98547.25;;;12.06
15144;BMP180;7672;50.834;6.286;2023-04-24T07:20:17;98544.78;;;12.03
15144;BMP180;7672;50.834;6.286;2023-04-24T07:22:46;98539.75;;;12.02
15144;BMP180;7672;50.834;6.286;2023-04-24T07:25:12;98551.56;;;12.03
15144;BMP180;7672;50.834;6.286;2023-04-24T07:27:39;98552.38;;;12.03
15144;BMP180;7672;50.834;6.286;2023-04-24T07:30:06;98559.06;;;12.07
15144;BMP180;7672;50.834;6.286;2023-04-24T07:32:34;98565.84;;;12.05
15144;BMP180;7672;50.834;6.286;2023-04-24T07:35:01;98567.56;;;12.03
15144;BMP180;7672;50.834;6.286;2023-04-24T07:37:30;98560.81;;;12.04
15144;BMP180;7672;50.834;6.286;2023-04-24T07:39:57;98578.63;;;11.99
15144;BMP180;7672;50.834;6.286;2023-04-24T07:42:24;98593.88;;;11.96
15144;BMP180;7672;50.834;6.286;2023-04-24T07:44:51;98598.19;;;11.91
15144;BMP180;7672;50.834;6.286;2023-04-24T07:47:17;98587.22;;;11.91
15144;BMP180;7672;50.834;6.286;2023-04-24T07:49:44;98608.44;;;11.85
15144;BMP180;7672;50.834;6.286;2023-04-24T07:52:11;98606.72;;;11.86
15144;BMP180;7672;50.834;6.286;2023-04-24T07:54:41;98615.19;;;11.85
15144;BMP180;7672;50.834;6.286;2023-04-24T07:57:09;98634.59;;;11.84
15144;BMP180;7672;50.834;6.286;2023-04-24T07:59:36;98640.53;;;11.83
15144;BMP180;7672;50.834;6.286;2023-04-24T08:02:03;98641.38;;;11.82
15144;BMP180;7672;50.834;6.286;2023-04-24T08:04:30;98654.06;;;11.81
15144;BMP180;7672;50.834;6.286;2023-04-24T08:06:57;98655.81;;;11.77
15144;BMP180;7672;50.834;6.286;2023-04-24T08:09:26;98651.63;;;11.76
15144;BMP180;7672;50.834;6.286;2023-04-24T08:11:56;98659.19;;;11.78
15144;BMP180;7672;50.834;6.286;2023-04-24T08:14:23;98665.03;;;11.83
15144;BMP180;7672;50.834;6.286;2023-04-24T08:16:50;98661.59;;;11.85
15144;BMP180;7672;50.834;6.286;2023-04-24T08:19:16;98675.94;;;11.86
15144;BMP180;7672;50.834;6.286;2023-04-24T08:21:43;98680.03;;;11.92
15144;BMP180;7672;50.834;6.286;2023-04-24T08:24:10;98680.84;;;11.95
15144;BMP180;7672;50.834;6.286;2023-04-24T08:26:37;98684.22;;;11.94
15144;BMP180;7672;50.834;6.286;2023-04-24T08:29:05;98688.47;;;11.92
15144;BMP180;7672;50.834;6.286;2023-04-24T08:31:33;98690.22;;;11.90
15144;BMP180;7672;50.834;6.286;2023-04-24T08:34:00;98708.75;;;11.91
15144;BMP180;7672;50.834;6.286;2023-04-24T08:36:27;98707.94;;;11.90
15144;BMP180;7672;50.834;6.286;2023-04-24T08:39:12;98716.38;;;11.89
15144;BMP180;7672;50.834;6.286;2023-04-24T08:41:44;98718.09;;;11.89
15144;BMP180;7672;50.834;6.286;2023-04-24T08:44:12;98723.13;;;11.90
15144;BMP180;7672;50.834;6.286;2023-04-24T08:46:47;98732.38;;;11.90
15144;BMP180;7672;50.834;6.286;2023-04-24T08:49:17;98734.00;;;11.95
15144;BMP180;7672;50.834;6.286;2023-04-24T08:51:45;98741.53;;;11.98
15144;BMP180;7672;50.834;6.286;2023-04-24T08:54:14;98744.91;;;12.00
15144;BMP180;7672;50.834;6.286;2023-04-24T08:56:44;98744.81;;;12.05
15144;BMP180;7672;50.834;6.286;2023-04-24T08:59:13;98750.63;;;12.10
15144;BMP180;7672;50.834;6.286;2023-04-24T09:01:40;98758.97;;;12.16
15144;BMP180;7672;50.834;6.286;2023-04-24T09:04:09;98755.44;;;12.25
15144;BMP180;7672;50.834;6.286;2023-04-24T09:06:42;98752.75;;;12.33
15144;BMP180;7672;50.834;6.286;2023-04-24T09:09:10;98753.38;;;12.46
15144;BMP180;7672;50.834;6.286;2023-04-24T09:11:38;98759.13;;;12.54
15144;BMP180;7672;50.834;6.286;2023-04-24T09:14:06;98759.84;;;12.60
15144;BMP180;7672;50.834;6.286;2023-04-24T09:16:33;98769.03;;;12.67
15144;BMP180;7672;50.834;6.286;2023-04-24T09:19:02;98773.09;;;12.74
15144;BMP180;7672;50.834;6.286;2023-04-24T09:21:34;98778.09;;;12.79
15144;BMP180;7672;50.834;6.286;2023-04-24T09:24:08;98783.94;;;12.81
15144;BMP180;7672;50.834;6.286;2023-04-24T09:26:40;98790.66;;;12.83
15144;BMP180;7672;50.834;6.286;2023-04-24T09:29:07;98800.78;;;12.88
15144;BMP180;7672;50.834;6.286;2023-04-24T09:31:34;98793.94;;;12.90
15144;BMP180;7672;50.834;6.286;2023-04-24T09:34:04;98783.75;;;12.93
15144;BMP180;7672;50.834;6.286;2023-04-24T09:36:40;98802.31;;;12.95
15144;BMP180;7672;50.834;6.286;2023-04-24T09:39:14;98799.69;;;12.99
15144;BMP180;7672;50.834;6.286;2023-04-24T09:41:51;98808.94;;;13.01
15144;BMP180;7672;50.834;6.286;2023-04-24T09:44:20;98810.47;;;13.08
15144;BMP180;7672;50.834;6.286;2023-04-24T09:46:54;98810.28;;;13.17
15144;BMP180;7672;50.834;6.286;2023-04-24T09:49:27;98797.25;;;13.34
15144;BMP180;7672;50.834;6.286;2023-04-24T09:52:11;98813.16;;;13.42
15144;BMP180;7672;50.834;6.286;2023-04-24T09:54:39;98817.31;;;13.46
15144;BMP180;7672;50.834;6.286;2023-04-24T09:57:08;98824.81;;;13.50
15144;BMP180;7672;50.834;6.286;2023-04-24T09:59:43;98816.81;;;13.68
15144;BMP180;7672;50.834;6.286;2023-04-24T10:02:19;98822.41;;;14.20
15144;BMP180;7672;50.834;6.286;2023-04-24T10:04:55;98820.63;;;14.88
15144;BMP180;7672;50.834;6.286;2023-04-24T10:07:26;98815.84;;;15.65
15144;BMP180;7672;50.834;6.286;2023-04-24T10:09:54;98819.38;;;16.14
15144;BMP180;7672;50.834;6.286;2023-04-24T10:12:22;98820.66;;;16.29
15144;BMP180;7672;50.834;6.286;2023-04-24T10:15:07;98831.84;;;16.23
15144;BMP180;7672;50.834;6.286;2023-04-24T10:17:39;98833.13;;;16.10
15144;BMP180;7672;50.834;6.286;2023-04-24T10:20:07;98843.47;;;16.06
15144;BMP180;7672;50.834;6.286;2023-04-24T10:22:40;98840.94;;;16.06
15144;BMP180;7672;50.834;6.286;2023-04-24T10:25:08;98834.03;;;16.08
15144;BMP180;7672;50.834;6.286;2023-04-24T10:27:37;98842.50;;;16.10
15144;BMP180;7672;50.834;6.286;2023-04-24T10:30:06;98840.88;;;16.08
15144;BMP180;7672;50.834;6.286;2023-04-24T10:32:33;98847.88;;;16.01
15144;BMP180;7672;50.834;6.286;2023-04-24T10:35:00;98845.50;;;15.95
15144;BMP180;7672;50.834;6.286;2023-04-24T10:37:27;98848.66;;;16.03
15144;BMP180;7672;50.834;6.286;2023-04-24T10:39:55;98853.28;;;16.45
15144;BMP180;7672;50.834;6.286;2023-04-24T10:42:22;98846.72;;;17.11
15144;BMP180;7672;50.834;6.286;2023-04-24T10:44:49;98845.63;;;17.87
15144;BMP180;7672;50.834;6.286;2023-04-24T10:47:19;98855.75;;;18.52
15144;BMP180;7672;50.834;6.286;2023-04-24T10:49:59;98849.88;;;19.29
15144;BMP180;7672;50.834;6.286;2023-04-24T10:52:47;98843.34;;;20.49
15144;BMP180;7672;50.834;6.286;2023-04-24T10:56:03;98852.53;;;22.15
15144;BMP180;7672;50.834;6.286;2023-04-24T10:58:44;98858.25;;;22.50
15144;BMP180;7672;50.834;6.286;2023-04-24T11:01:29;98847.56;;;22.27
15144;BMP180;7672;50.834;6.286;2023-04-24T11:04:00;98852.94;;;21.92
15144;BMP180;7672;50.834;6.286;2023-04-24T11:06:36;98853.59;;;21.49
15144;BMP180;7672;50.834;6.286;2023-04-24T11:09:06;98866.13;;;21.06
15144;BMP180;7672;50.834;6.286;2023-04-24T11:11:36;98872.47;;;20.65
15144;BMP180;7672;50.834;6.286;2023-04-24T11:14:06;98864.59;;;20.35
15144;BMP180;7672;50.834;6.286;2023-04-24T11:16:53;98860.84;;;20.06
15144;BMP180;7672;50.834;6.286;2023-04-24T11:19:26;98880.88;;;19.80
15144;BMP180;7672;50.834;6.286;2023-04-24T11:22:02;98883.00;;;19.52
15144;BMP180;7672;50.834;6.286;2023-04-24T11:24:48;98888.34;;;19.28
15144;BMP180;7672;50.834;6.286;2023-04-24T11:27:18;98878.31;;;19.23
15144;BMP180;7672;50.834;6.286;2023-04-24T11:29:48;98890.25;;;19.43
15144;BMP180;7672;50.834;6.286;2023-04-24T11:37:48;98900.00;;;20.45
15144;BMP180;7672;50.834;6.286;2023-04-24T11:40:21;98898.31;;;20.62
15144;BMP180;7672;50.834;6.286;2023-04-24T11:42:52;98902.53;;;20.63
15144;BMP180;7672;50.834;6.286;2023-04-24T11:45:28;98902.47;;;20.65
15144;BMP180;7672;50.834;6.286;2023-04-24T11:47:58;98908.91;;;20.73
15144;BMP180;7672;50.834;6.286;2023-04-24T11:50:27;98912.41;;;20.89
15144;BMP180;7672;50.834;6.286;2023-04-24T11:52:54;98914.94;;;21.06
15144;BMP180;7672;50.834;6.286;2023-04-24T11:55:24;98909.34;;;21.15
15144;BMP180;7672;50.834;6.286;2023-04-24T11:57:59;98921.88;;;21.21
15144;BMP180;7672;50.834;6.286;2023-04-24T12:00:31;98913.88;;;21.27
15144;BMP180;7672;50.834;6.286;2023-04-24T12:03:09;98916.75;;;21.38
15144;BMP180;7672;50.834;6.286;2023-04-24T12:05:38;98924.34;;;21.56
15144;BMP180;7672;50.834;6.286;2023-04-24T12:08:07;98918.16;;;21.75
15144;BMP180;7672;50.834;6.286;2023-04-24T12:10:35;98910.81;;;22.00
15144;BMP180;7672;50.834;6.286;2023-04-24T12:13:02;98915.88;;;22.17
15144;BMP180;7672;50.834;6.286;2023-04-24T12:15:32;98920.53;;;22.26
15144;BMP180;7672;50.834;6.286;2023-04-24T12:17:59;98926.59;;;22.25
15144;BMP180;7672;50.834;6.286;2023-04-24T12:20:35;98923.19;;;22.09
15144;BMP180;7672;50.834;6.286;2023-04-24T12:23:02;98932.63;;;21.93
15144;BMP180;7672;50.834;6.286;2023-04-24T12:25:32;98938.69;;;21.77
15144;BMP180;7672;50.834;6.286;2023-04-24T12:30:48;98942.31;;;21.24
15144;BMP180;7672;50.834;6.286;2023-04-24T12:33:21;98940.47;;;20.92
15144;BMP180;7672;50.834;6.286;2023-04-24T12:35:52;98948.88;;;20.60
15144;BMP180;7672;50.834;6.286;2023-04-24T12:38:25;98955.59;;;20.28
15144;BMP180;7672;50.834;6.286;2023-04-24T12:41:04;98960.22;;;19.83
15144;BMP180;7672;50.834;6.286;2023-04-24T12:43:31;98963.59;;;19.45
15144;BMP180;7672;50.834;6.286;2023-04-24T12:45:58;98958.75;;;19.20
15144;BMP180;7672;50.834;6.286;2023-04-24T12:48:29;98956.38;;;19.15
15144;BMP180;7672;50.834;6.286;2023-04-24T12:50:59;98951.91;;;19.20
15144;BMP180;7672;50.834;6.286;2023-04-24T12:53:29;98954.97;;;19.28
15144;BMP180;7672;50.834;6.286;2023-04-24T12:55:58;98966.81;;;19.30
15144;BMP180;7672;50.834;6.286;2023-04-24T12:58:25;98959.41;;;19.24
15144;BMP180;7672;50.834;6.286;2023-04-24T13:00:52;98965.03;;;19.13
15144;BMP180;7672;50.834;6.286;2023-04-24T13:03:19;98975.88;;;18.98
15144;BMP180;7672;50.834;6.286;2023-04-24T13:05:46;98978.03;;;18.87
15144;BMP180;7672;50.834;6.286;2023-04-24T13:08:13;98966.44;;;18.78
15144;BMP180;7672;50.834;6.286;2023-04-24T13:10:40;98962.75;;;18.64
15144;BMP180;7672;50.834;6.286;2023-04-24T13:13:08;98976.16;;;18.49
15144;BMP180;7672;50.834;6.286;2023-04-24T13:15:35;98977.69;;;18.32
15144;BMP180;7672;50.834;6.286;2023-04-24T13:18:11;98978.03;;;18.23
15144;BMP180;7672;50.834;6.286;2023-04-24T13:20:38;98982.31;;;18.22
15144;BMP180;7672;50.834;6.286;2023-04-24T13:23:08;98983.16;;;18.23
15144;BMP180;7672;50.834;6.286;2023-04-24T13:25:36;98968.53;;;18.26
15144;BMP180;7672;50.834;6.286;2023-04-24T13:28:08;98968.03;;;18.38
15144;BMP180;7672;50.834;6.286;2023-04-24T13:30:35;98973.22;;;18.58
15144;BMP180;7672;50.834;6.286;2023-04-24T13:33:02;98980.38;;;18.71
15144;BMP180;7672;50.834;6.286;2023-04-24T13:35:29;98977.31;;;18.83
15144;BMP180;7672;50.834;6.286;2023-04-24T13:37:58;98976.78;;;18.97
15144;BMP180;7672;50.834;6.286;2023-04-24T13:40:27;98981.34;;;19.10
15144;BMP180;7672;50.834;6.286;2023-04-24T13:42:54;98987.75;;;19.20
15144;BMP180;7672;50.834;6.286;2023-04-24T13:45:21;98984.06;;;19.27
15144;BMP180;7672;50.834;6.286;2023-04-24T13:47:51;98987.94;;;19.35
15144;BMP180;7672;50.834;6.286;2023-04-24T13:50:20;98983.38;;;19.43
15144;BMP180;7672;50.834;6.286;2023-04-24T13:52:47;98983.22;;;19.46
15144;BMP180;7672;50.834;6.286;2023-04-24T13:55:14;98990.00;;;19.47
15144;BMP180;7672;50.834;6.286;2023-04-24T13:57:40;98990.13;;;19.44
15144;BMP180;7672;50.834;6.286;2023-04-24T14:00:11;98989.47;;;19.39
15144;BMP180;7672;50.834;6.286;2023-04-24T14:02:38;98985.06;;;19.43
15144;BMP180;7672;50.834;6.286;2023-04-24T14:05:07;98977.91;;;19.51
15144;BMP180;7672;50.834;6.286;2023-04-24T14:07:33;98976.81;;;19.56
15144;BMP180;7672;50.834;6.286;2023-04-24T14:10:03;98971.53;;;19.59
15144;BMP180;7672;50.834;6.286;2023-04-24T14:12:31;98966.97;;;19.66
15144;BMP180;7672;50.834;6.286;2023-04-24T14:14:58;98965.94;;;19.70
15144;BMP180;7672;50.834;6.286;2023-04-24T14:17:27;98964.22;;;19.70
15144;BMP180;7672;50.834;6.286;2023-04-24T14:19:54;98969.59;;;19.64
15144;BMP180;7672;50.834;6.286;2023-04-24T14:22:25;98976.81;;;19.56
15144;BMP180;7672;50.834;6.286;2023-04-24T14:24:52;98973.59;;;19.51
15144;BMP180;7672;50.834;6.286;2023-04-24T14:27:20;98969.50;;;19.47
15144;BMP180;7672;50.834;6.286;2023-04-24T14:29:47;98955.59;;;19.53
15144;BMP180;7672;50.834;6.286;2023-04-24T14:32:14;98970.81;;;19.56
15144;BMP180;7672;50.834;6.286;2023-04-24T14:34:41;98961.34;;;19.58
15144;BMP180;7672;50.834;6.286;2023-04-24T14:37:10;98959.69;;;19.57
15144;BMP180;7672;50.834;6.286;2023-04-24T14:39:42;98963.13;;;19.56
15144;BMP180;7672;50.834;6.286;2023-04-24T14:42:15;98966.41;;;19.59
15144;BMP180;7672;50.834;6.286;2023-04-24T14:44:46;98962.19;;;19.58
15144;BMP180;7672;50.834;6.286;2023-04-24T14:47:12;98957.06;;;19.58